createdAt,value
2017-08-06T00:00:57.084Z,18.70
2017-08-06T00:03:23.121Z,19.10
2017-08-06T00:05:49.203Z,15.90
2017-08-06T00:08:15.226Z,13.97
2017-08-06T00:10:41.280Z,15.10
2017-08-06T00:13:08.036Z,17.00
2017-08-06T00:15:34.084Z,15.57
2017-08-06T00:18:00.112Z,18.03
2017-08-06T00:20:26.899Z,20.70
2017-08-06T00:22:52.932Z,13.47
2017-08-06T00:25:18.982Z,19.17
2017-08-06T00:27:45.013Z,15.07
2017-08-06T00:30:11.049Z,12.73
2017-08-06T00:32:37.073Z,16.43
2017-08-06T00:35:10.972Z,15.90
2017-08-06T00:37:36.993Z,16.93
2017-08-06T00:40:03.036Z,12.07
2017-08-06T00:42:29.074Z,18.77
2017-08-06T00:44:55.145Z,18.07
2017-08-06T00:47:21.929Z,11.27
2017-08-06T00:49:47.977Z,15.23
2017-08-06T00:52:14.006Z,10.17
2017-08-06T00:54:40.039Z,14.57
2017-08-06T00:57:06.080Z,12.40
2017-08-06T00:59:32.113Z,12.40
2017-08-06T01:01:58.148Z,12.40
2017-08-06T01:04:24.179Z,11.23
2017-08-06T01:06:50.225Z,16.63
2017-08-06T01:09:16.253Z,18.97
2017-08-06T01:11:43.119Z,14.40
2017-08-06T01:14:09.141Z,12.13
2017-08-06T01:16:35.176Z,11.80
2017-08-06T01:19:01.209Z,13.80
2017-08-06T01:21:27.274Z,12.83
2017-08-06T01:23:53.292Z,25.33
2017-08-06T01:26:19.340Z,16.53
2017-08-06T01:28:45.374Z,15.93
2017-08-06T01:31:11.426Z,16.40
2017-08-06T01:33:37.460Z,15.57
2017-08-06T01:36:03.493Z,18.57
2017-08-06T01:38:29.535Z,15.67
2017-08-06T01:40:55.570Z,15.97
2017-08-06T01:43:21.627Z,16.87
2017-08-06T01:45:47.701Z,15.57
2017-08-06T01:48:13.786Z,12.40
2017-08-06T01:50:39.821Z,17.43
2017-08-06T01:53:05.886Z,18.20
2017-08-06T01:55:31.912Z,16.73
2017-08-06T01:57:57.978Z,14.73
2017-08-06T02:00:24.761Z,17.80
2017-08-06T02:02:50.807Z,17.03
2017-08-06T02:05:16.841Z,16.20
2017-08-06T02:07:43.657Z,15.13
2017-08-06T02:10:09.701Z,14.03
2017-08-06T02:12:35.774Z,11.63
2017-08-06T02:15:01.821Z,16.57
2017-08-06T02:20:00.737Z,13.67
2017-08-06T02:22:26.765Z,10.67
2017-08-06T02:24:52.844Z,18.80
2017-08-06T02:27:18.899Z,18.83
2017-08-06T02:29:44.952Z,13.57
2017-08-06T02:32:10.990Z,14.47
2017-08-06T02:34:37.085Z,13.80
2017-08-06T02:37:03.121Z,11.20
2017-08-06T02:39:30.217Z,11.23
2017-08-06T02:41:56.277Z,9.63
2017-08-06T02:44:22.327Z,14.63
2017-08-06T02:46:49.102Z,14.17
2017-08-06T02:49:15.181Z,11.93
2017-08-06T02:51:41.214Z,15.30
2017-08-06T02:54:07.264Z,15.20
2017-08-06T02:56:33.323Z,14.43
2017-08-06T02:58:59.363Z,9.57
2017-08-06T03:01:25.421Z,17.03
2017-08-06T03:03:52.185Z,10.13
2017-08-06T03:06:18.221Z,10.37
2017-08-06T03:08:44.262Z,10.90
2017-08-06T03:11:11.077Z,11.03
2017-08-06T03:13:37.210Z,11.00
2017-08-06T03:16:04.017Z,15.10
2017-08-06T03:18:30.048Z,17.33
2017-08-06T03:20:56.092Z,13.17
2017-08-06T03:23:22.117Z,11.00
2017-08-06T03:25:48.321Z,10.20
2017-08-06T03:28:14.359Z,11.53
2017-08-06T03:30:40.405Z,15.63
2017-08-06T03:33:07.170Z,16.87
2017-08-06T03:35:33.225Z,11.47
2017-08-06T03:37:59.274Z,11.10
2017-08-06T03:40:25.302Z,14.33
2017-08-06T03:42:51.349Z,12.67
2017-08-06T03:45:17.405Z,22.90
2017-08-06T03:47:44.008Z,16.07
2017-08-06T03:50:10.765Z,14.13
2017-08-06T03:52:36.813Z,14.70
2017-08-06T03:55:02.894Z,14.57
2017-08-06T03:57:28.927Z,17.90
2017-08-06T03:59:54.944Z,11.70
2017-08-06T04:02:20.988Z,13.63
2017-08-06T04:04:47.749Z,15.30
2017-08-06T04:07:13.798Z,9.13
2017-08-06T04:09:39.821Z,17.90
2017-08-06T04:12:05.902Z,13.73
2017-08-06T04:14:31.941Z,12.17
2017-08-06T04:16:58.001Z,9.70
2017-08-06T04:19:24.029Z,15.77
2017-08-06T04:21:50.068Z,20.07
2017-08-06T04:24:16.105Z,10.40
2017-08-06T04:26:42.161Z,11.43
2017-08-06T04:29:08.188Z,13.03
2017-08-06T04:31:34.249Z,14.53
2017-08-06T04:34:05.987Z,16.50
2017-08-06T04:36:32.053Z,14.23
2017-08-06T04:38:58.093Z,9.63
2017-08-06T04:41:24.881Z,12.00
2017-08-06T04:43:50.917Z,13.17
2017-08-06T04:46:16.951Z,10.13
2017-08-06T04:48:43.717Z,9.87
2017-08-06T04:51:09.783Z,11.47
2017-08-06T04:53:35.813Z,10.90
2017-08-06T04:56:01.881Z,8.50
2017-08-06T04:58:27.915Z,7.30
2017-08-06T05:00:54.689Z,11.63
2017-08-06T05:03:20.718Z,8.70
2017-08-06T05:05:46.749Z,9.63
2017-08-06T05:08:12.773Z,10.00
2017-08-06T05:10:38.878Z,9.37
2017-08-06T05:13:05.652Z,14.10
2017-08-06T05:15:31.686Z,13.40
2017-08-06T05:17:57.730Z,6.87
2017-08-06T05:20:23.773Z,13.33
2017-08-06T05:22:56.865Z,8.53
2017-08-06T05:25:22.911Z,11.73
2017-08-06T05:27:48.946Z,11.47
2017-08-06T05:30:15.753Z,9.30
2017-08-06T05:32:41.774Z,10.90
2017-08-06T05:35:07.817Z,10.70
2017-08-06T05:37:33.859Z,16.00
2017-08-06T05:40:06.960Z,9.40
2017-08-06T05:42:32.993Z,10.40
2017-08-06T05:44:59.751Z,10.50
2017-08-06T05:47:25.821Z,9.40
2017-08-06T05:49:51.854Z,9.87
2017-08-06T05:52:17.889Z,5.70
2017-08-06T05:54:44.268Z,8.80
2017-08-06T05:57:11.068Z,10.90
2017-08-06T05:59:37.113Z,7.00
2017-08-06T06:02:03.176Z,5.70
2017-08-06T06:04:29.205Z,9.93
2017-08-06T06:06:55.259Z,5.83
2017-08-06T06:09:21.286Z,10.43
2017-08-06T06:11:47.341Z,6.70
2017-08-06T06:14:13.377Z,7.60
2017-08-06T06:16:39.449Z,8.57
2017-08-06T06:19:05.460Z,7.03
2017-08-06T06:21:31.505Z,6.90
2017-08-06T06:23:58.257Z,7.20
2017-08-06T06:26:24.302Z,11.30
2017-08-06T06:28:50.340Z,6.17
2017-08-06T06:31:17.130Z,8.10
2017-08-06T06:33:43.181Z,7.30
2017-08-06T06:36:09.207Z,4.40
2017-08-06T06:38:35.270Z,9.20
2017-08-06T06:41:01.309Z,4.67
2017-08-06T06:43:27.344Z,6.83
2017-08-06T06:45:53.366Z,7.90
2017-08-06T06:48:19.416Z,5.23
2017-08-06T06:50:45.426Z,4.77
2017-08-06T06:53:11.456Z,4.43
2017-08-06T06:55:37.461Z,6.63
2017-08-06T06:58:03.497Z,11.17
2017-08-06T07:00:30.328Z,4.73
2017-08-06T07:02:56.361Z,2.50
2017-08-06T07:05:22.421Z,8.50
2017-08-06T07:07:48.464Z,7.03
2017-08-06T07:10:14.481Z,3.43
2017-08-06T07:12:40.623Z,3.87
2017-08-06T07:15:06.645Z,2.50
2017-08-06T07:17:32.690Z,6.60
2017-08-06T07:19:58.714Z,5.70
2017-08-06T07:22:25.522Z,6.13
2017-08-06T07:24:51.548Z,4.40
2017-08-06T07:27:17.566Z,3.40
2017-08-06T07:29:43.606Z,7.27
2017-08-06T07:32:09.711Z,3.20
2017-08-06T07:34:35.750Z,5.33
2017-08-06T07:37:01.785Z,2.20
2017-08-06T07:39:27.826Z,2.50
2017-08-06T07:41:53.864Z,3.70
2017-08-06T07:44:19.891Z,8.73
2017-08-06T07:46:45.945Z,2.70
2017-08-06T07:49:12.733Z,5.30
2017-08-06T07:51:38.756Z,5.17
2017-08-06T07:54:04.793Z,6.37
2017-08-06T07:56:31.565Z,4.93
2017-08-06T07:58:57.665Z,8.10
2017-08-06T08:01:23.704Z,4.07
2017-08-06T08:03:49.753Z,2.13
2017-08-06T08:06:16.521Z,4.57
2017-08-06T08:08:42.560Z,2.60
2017-08-06T08:11:08.629Z,5.73
2017-08-06T08:13:34.691Z,5.13
2017-08-06T08:16:00.876Z,3.77
2017-08-06T08:18:26.956Z,5.63
2017-08-06T08:20:52.997Z,4.43
2017-08-06T08:23:19.130Z,9.00
2017-08-06T08:25:45.281Z,3.17
2017-08-06T08:28:11.337Z,4.97
2017-08-06T08:30:37.393Z,4.43
2017-08-06T08:33:03.519Z,3.37
2017-08-06T08:35:29.552Z,3.77
2017-08-06T08:37:55.571Z,3.33
2017-08-06T08:40:21.636Z,3.43
2017-08-06T08:42:47.761Z,4.27
2017-08-06T08:45:13.869Z,3.17
2017-08-06T08:47:40.622Z,1.70
2017-08-06T08:50:06.669Z,5.70
2017-08-06T08:52:32.700Z,3.23
2017-08-06T08:54:59.569Z,1.83
2017-08-06T08:57:25.650Z,3.43
2017-08-06T08:59:51.706Z,2.80
2017-08-06T09:02:17.740Z,2.60
2017-08-06T09:04:43.785Z,4.10
2017-08-06T09:07:10.558Z,2.90
2017-08-06T09:09:36.586Z,2.27
2017-08-06T09:12:02.653Z,3.27
2017-08-06T09:14:28.704Z,1.80
2017-08-06T09:16:54.750Z,3.00
2017-08-06T09:19:21.538Z,5.93
2017-08-06T09:21:47.597Z,3.57
2017-08-06T09:24:14.392Z,5.60
2017-08-06T09:26:40.411Z,2.30
2017-08-06T09:29:06.550Z,1.93
2017-08-06T09:31:32.612Z,3.13
2017-08-06T09:33:58.635Z,1.63
2017-08-06T09:36:24.708Z,5.47
2017-08-06T09:38:50.729Z,3.27
2017-08-06T09:41:16.829Z,3.83
2017-08-06T09:43:42.852Z,2.40
2017-08-06T09:46:16.790Z,2.60
2017-08-06T09:48:42.865Z,3.20
2017-08-06T09:51:08.957Z,4.97
2017-08-06T09:53:35.000Z,3.57
2017-08-06T09:56:01.042Z,5.57
2017-08-06T09:58:27.879Z,4.13
2017-08-06T10:00:54.703Z,1.87
2017-08-06T10:03:20.750Z,3.63
2017-08-06T10:05:46.844Z,3.10
2017-08-06T10:08:12.883Z,1.60
2017-08-06T10:10:38.944Z,4.00
2017-08-06T10:13:04.974Z,2.03
2017-08-06T10:15:31.038Z,3.60
2017-08-06T10:17:58.116Z,5.13
2017-08-06T10:20:24.885Z,2.07
2017-08-06T10:22:50.954Z,4.30
2017-08-06T10:25:17.724Z,6.40
2017-08-06T10:27:43.770Z,4.57
2017-08-06T10:30:09.806Z,7.67
2017-08-06T10:32:35.863Z,2.70
2017-08-06T10:35:01.962Z,2.73
2017-08-06T10:37:28.033Z,3.93
2017-08-06T10:39:54.056Z,6.03
2017-08-06T10:42:20.134Z,1.97
2017-08-06T10:44:46.174Z,2.50
2017-08-06T10:47:12.220Z,2.07
2017-08-06T10:49:38.288Z,3.90
2017-08-06T10:52:04.332Z,3.57
2017-08-06T10:54:30.375Z,3.07
2017-08-06T10:56:56.428Z,4.17
2017-08-06T10:59:22.460Z,2.20
2017-08-06T11:01:48.742Z,2.20
2017-08-06T11:04:15.534Z,3.50
2017-08-06T11:06:41.633Z,5.67
2017-08-06T11:09:07.657Z,3.70
2017-08-06T11:11:33.726Z,1.50
2017-08-06T11:13:59.777Z,2.20
2017-08-06T11:16:25.856Z,6.30
2017-08-06T11:18:51.892Z,3.40
2017-08-06T11:21:19.115Z,2.97
2017-08-06T11:23:45.439Z,8.93
2017-08-06T11:26:11.569Z,2.10
2017-08-06T11:28:37.609Z,3.20
2017-08-06T11:31:03.685Z,4.10
2017-08-06T11:33:29.745Z,3.03
2017-08-06T11:35:55.920Z,1.50
2017-08-06T11:38:21.954Z,2.60
2017-08-06T11:40:48.734Z,4.33
2017-08-06T11:43:14.775Z,2.20
2017-08-06T11:45:40.801Z,2.00
2017-08-06T11:48:06.869Z,2.60
2017-08-06T11:50:32.890Z,2.80
2017-08-06T11:52:58.954Z,1.27
2017-08-06T11:55:25.725Z,3.70
2017-08-06T11:57:51.774Z,2.03
2017-08-06T12:00:18.567Z,10.93
2017-08-06T12:02:44.645Z,2.27
2017-08-06T12:05:10.689Z,2.23
2017-08-06T12:07:36.735Z,3.20
2017-08-06T12:10:02.790Z,3.50
2017-08-06T12:12:28.859Z,2.43
2017-08-06T12:15:02.658Z,2.70
2017-08-06T12:17:29.459Z,2.87
2017-08-06T12:19:55.502Z,2.03
2017-08-06T12:22:22.321Z,3.07
2017-08-06T12:24:48.370Z,2.40
2017-08-06T12:27:14.430Z,1.33
2017-08-06T12:32:13.112Z,4.80
2017-08-06T12:34:39.153Z,2.40
2017-08-06T12:37:05.229Z,6.67
2017-08-06T12:39:31.253Z,1.83
2017-08-06T12:41:58.034Z,2.13
2017-08-06T12:44:24.052Z,3.97
2017-08-06T12:46:50.105Z,1.90
2017-08-06T12:49:16.142Z,5.03
2017-08-06T12:51:42.187Z,1.73
2017-08-06T12:54:08.228Z,2.17
2017-08-06T12:56:34.285Z,6.50
2017-08-06T12:59:00.308Z,1.70
2017-08-06T13:01:26.354Z,2.10
2017-08-06T13:03:52.410Z,2.43
2017-08-06T13:06:18.499Z,2.80
2017-08-06T13:08:45.365Z,1.33
2017-08-06T13:11:11.481Z,1.60
2017-08-06T13:13:37.535Z,2.30
2017-08-06T13:16:03.626Z,3.53
2017-08-06T13:18:29.674Z,2.03
2017-08-06T13:20:55.701Z,4.47
2017-08-06T13:23:21.740Z,2.13
2017-08-06T13:25:47.809Z,1.83
2017-08-06T13:28:13.847Z,5.37
2017-08-06T13:30:39.910Z,1.40
2017-08-06T13:33:05.970Z,2.87
2017-08-06T13:35:32.038Z,3.13
2017-08-06T13:37:58.073Z,1.87
2017-08-06T13:40:24.109Z,9.70
2017-08-06T13:42:50.159Z,2.10
2017-08-06T13:45:16.222Z,5.23
2017-08-06T13:47:42.238Z,1.60
2017-08-06T13:50:08.501Z,3.40
2017-08-06T13:52:34.657Z,2.37
2017-08-06T13:55:00.701Z,3.50
2017-08-06T13:57:26.757Z,3.50
2017-08-06T13:59:52.837Z,2.50
2017-08-06T14:02:18.980Z,1.97
2017-08-06T14:07:21.381Z,3.27
2017-08-06T14:09:47.417Z,1.67
2017-08-06T14:12:13.474Z,3.50
2017-08-06T14:14:39.504Z,1.47
2017-08-06T14:17:05.902Z,3.10
2017-08-06T14:19:32.014Z,2.20
2017-08-06T14:21:58.059Z,6.33
2017-08-06T14:24:24.103Z,6.77
2017-08-06T14:26:50.138Z,1.87
2017-08-06T14:29:16.916Z,3.03
2017-08-06T14:31:42.953Z,2.33
2017-08-06T14:34:09.004Z,1.30
2017-08-06T14:36:35.026Z,1.80
2017-08-06T14:39:01.071Z,1.83
2017-08-06T14:41:27.118Z,1.93
2017-08-06T14:43:53.917Z,2.77
2017-08-06T14:46:19.977Z,2.17
2017-08-06T14:48:46.031Z,2.00
2017-08-06T14:51:13.458Z,1.40
2017-08-06T14:53:39.595Z,5.80
2017-08-06T14:56:05.625Z,2.30
2017-08-06T14:58:32.547Z,1.57
2017-08-06T15:00:58.574Z,2.23
2017-08-06T15:03:25.359Z,2.87
2017-08-06T15:05:51.599Z,3.47
2017-08-06T15:08:17.801Z,1.80
2017-08-06T15:10:44.006Z,1.93
2017-08-06T15:13:10.032Z,2.30
2017-08-06T15:15:36.150Z,1.40
2017-08-06T15:18:02.213Z,1.83
2017-08-06T15:20:28.286Z,2.00
2017-08-06T15:22:54.547Z,3.60
2017-08-06T15:25:20.578Z,1.60
2017-08-06T15:27:46.856Z,2.57
2017-08-06T15:30:12.899Z,2.60
2017-08-06T15:32:38.977Z,4.50
2017-08-06T15:35:05.068Z,3.70
2017-08-06T15:37:31.086Z,5.77
2017-08-06T15:39:57.146Z,3.13
2017-08-06T15:42:23.411Z,1.93
2017-08-06T15:44:50.386Z,5.00
2017-08-06T15:47:16.413Z,1.60
2017-08-06T15:49:42.449Z,1.40
2017-08-06T15:52:09.230Z,2.07
2017-08-06T15:54:35.268Z,2.03
2017-08-06T15:57:01.285Z,3.43
2017-08-06T15:59:27.313Z,3.03
2017-08-06T16:01:54.098Z,2.37
2017-08-06T16:04:20.118Z,3.47
2017-08-06T16:06:46.179Z,3.20
2017-08-06T16:09:12.204Z,1.90
2017-08-06T16:11:38.300Z,4.60
2017-08-06T16:14:04.332Z,1.40
2017-08-06T16:16:30.476Z,2.90
2017-08-06T16:18:56.505Z,3.47
2017-08-06T16:21:22.534Z,1.43
2017-08-06T16:23:48.656Z,4.03
2017-08-06T16:26:14.668Z,2.53
2017-08-06T16:28:41.492Z,3.03
2017-08-06T16:31:07.549Z,1.90
2017-08-06T16:33:33.618Z,3.50
2017-08-06T16:35:59.662Z,1.90
2017-08-06T16:38:25.745Z,2.70
2017-08-06T16:40:51.900Z,8.13
2017-08-06T16:43:18.137Z,2.70
2017-08-06T16:45:44.162Z,1.83
2017-08-06T16:48:10.209Z,2.27
2017-08-06T16:50:36.274Z,3.50
2017-08-06T16:53:02.309Z,3.23
2017-08-06T16:55:28.371Z,1.33
2017-08-06T16:57:54.496Z,2.13
2017-08-06T17:00:21.637Z,2.33
2017-08-06T17:02:47.652Z,2.30
2017-08-06T17:05:13.706Z,4.17
2017-08-06T17:07:39.733Z,2.27
2017-08-06T17:10:05.774Z,3.07
2017-08-06T17:12:31.834Z,1.83
2017-08-06T17:14:57.860Z,1.77
2017-08-06T17:17:23.917Z,1.90
2017-08-06T17:19:49.957Z,3.33
2017-08-06T17:22:16.072Z,2.73
2017-08-06T17:24:42.849Z,5.07
2017-08-06T17:27:09.066Z,1.90
2017-08-06T17:29:35.113Z,4.30
2017-08-06T17:32:01.969Z,3.93
2017-08-06T17:34:28.045Z,3.00
2017-08-06T17:36:55.165Z,4.63
2017-08-06T17:39:21.342Z,2.97
2017-08-06T17:41:47.538Z,4.73
2017-08-06T17:44:13.586Z,2.03
2017-08-06T17:46:39.618Z,6.60
2017-08-06T17:49:06.705Z,2.53
2017-08-06T17:51:32.746Z,3.30
2017-08-06T17:53:58.897Z,1.40
2017-08-06T17:56:25.749Z,3.50
2017-08-06T17:58:51.815Z,2.40
2017-08-06T18:01:18.076Z,3.90
2017-08-06T18:03:44.133Z,3.00
2017-08-06T18:06:10.183Z,4.73
2017-08-06T18:08:36.201Z,3.27
2017-08-06T18:11:02.255Z,3.97
2017-08-06T18:13:28.282Z,3.50
2017-08-06T18:15:54.396Z,2.20
2017-08-06T18:18:20.559Z,2.80
2017-08-06T18:20:46.634Z,1.83
2017-08-06T18:23:12.677Z,3.37
2017-08-06T18:25:38.713Z,1.80
2017-08-06T18:28:04.769Z,2.70
2017-08-06T18:30:30.797Z,3.20
2017-08-06T18:32:56.853Z,3.90
2017-08-06T18:35:23.207Z,3.27
2017-08-06T18:37:49.295Z,5.17
2017-08-06T18:40:15.346Z,3.57
2017-08-06T18:42:42.145Z,3.03
2017-08-06T18:45:08.183Z,4.27
2017-08-06T18:47:34.245Z,5.33
2017-08-06T18:50:00.283Z,3.63
2017-08-06T18:52:27.293Z,4.10
2017-08-06T18:54:54.219Z,3.50
2017-08-06T18:57:20.289Z,3.50
2017-08-06T18:59:46.357Z,2.30
2017-08-06T19:02:12.397Z,2.33
2017-08-06T19:04:39.373Z,4.80
2017-08-06T19:07:05.461Z,2.23
2017-08-06T19:09:31.483Z,2.80
2017-08-06T19:11:57.676Z,2.27
2017-08-06T19:14:23.790Z,1.87
2017-08-06T19:16:50.638Z,1.57
2017-08-06T19:19:16.715Z,3.10
2017-08-06T19:21:43.506Z,1.70
2017-08-06T19:24:09.598Z,2.00
2017-08-06T19:26:35.665Z,4.13
2017-08-06T19:29:02.448Z,3.80
2017-08-06T19:31:28.521Z,4.63
2017-08-06T19:33:54.593Z,5.60
2017-08-06T19:36:20.667Z,5.13
2017-08-06T19:38:46.775Z,2.13
2017-08-06T19:41:12.834Z,2.53
2017-08-06T19:43:38.875Z,3.40
2017-08-06T19:46:04.933Z,5.27
2017-08-06T19:48:31.015Z,3.10
2017-08-06T19:50:57.841Z,2.37
2017-08-06T19:53:24.277Z,2.83
2017-08-06T19:55:50.403Z,3.73
2017-08-06T19:58:16.488Z,1.97
2017-08-06T20:00:42.541Z,4.40
2017-08-06T20:03:08.624Z,3.13
2017-08-06T20:05:34.652Z,9.43
2017-08-06T20:08:00.693Z,6.00
2017-08-06T20:10:27.091Z,3.17
2017-08-06T20:12:53.394Z,3.80
2017-08-06T20:15:19.443Z,2.40
2017-08-06T20:17:45.529Z,4.33
2017-08-06T20:20:11.555Z,5.10
2017-08-06T20:22:37.604Z,3.07
2017-08-06T20:25:04.798Z,6.67
2017-08-06T20:27:30.842Z,5.27
2017-08-06T20:29:57.646Z,3.10
2017-08-06T20:32:23.802Z,2.50
2017-08-06T20:34:49.843Z,5.60
2017-08-06T20:37:15.870Z,2.57
2017-08-06T20:39:41.922Z,5.00
2017-08-06T20:42:07.994Z,4.40
2017-08-06T20:44:34.122Z,4.40
2017-08-06T20:47:01.206Z,5.00
2017-08-06T20:49:27.269Z,3.90
2017-08-06T20:51:53.698Z,2.80
2017-08-06T20:54:20.551Z,2.90
2017-08-06T20:56:46.649Z,3.30
2017-08-06T20:59:13.493Z,3.30
2017-08-06T21:01:39.533Z,9.30
2017-08-06T21:04:05.576Z,3.80
2017-08-06T21:06:31.770Z,4.07
2017-08-06T21:08:57.836Z,4.97
2017-08-06T21:11:23.895Z,3.87
2017-08-06T21:13:49.946Z,7.63
2017-08-06T21:16:16.082Z,5.87
2017-08-06T21:18:42.121Z,9.13
2017-08-06T21:21:08.175Z,5.23
2017-08-06T21:23:34.230Z,5.93
2017-08-06T21:26:00.278Z,4.03
2017-08-06T21:28:26.310Z,3.40
2017-08-06T21:30:52.366Z,17.47
2017-08-06T21:33:18.399Z,3.00
2017-08-06T21:35:51.373Z,5.27
2017-08-06T21:38:17.618Z,3.83
2017-08-06T21:40:44.396Z,11.03
2017-08-06T21:43:10.437Z,4.60
2017-08-06T21:45:37.397Z,3.40
2017-08-06T21:48:03.437Z,3.70
2017-08-06T21:50:29.501Z,6.93
2017-08-06T21:52:55.541Z,7.13
2017-08-06T21:55:21.599Z,5.97
2017-08-06T21:57:47.702Z,5.40
2017-08-06T22:00:13.746Z,3.77
2017-08-06T22:02:40.526Z,3.83
2017-08-06T22:05:06.568Z,10.60
2017-08-06T22:07:32.602Z,3.70
2017-08-06T22:09:59.413Z,7.63
2017-08-06T22:12:25.957Z,9.57
2017-08-06T22:14:51.984Z,3.30
2017-08-06T22:17:18.510Z,4.67
2017-08-06T22:19:44.529Z,5.03
2017-08-06T22:22:10.569Z,3.17
2017-08-06T22:24:36.601Z,5.10
2017-08-06T22:27:02.676Z,4.03
2017-08-06T22:29:28.734Z,4.57
2017-08-06T22:31:54.782Z,4.90
2017-08-06T22:34:20.827Z,5.30
2017-08-06T22:36:48.133Z,5.40
2017-08-06T22:39:14.180Z,3.93
2017-08-06T22:41:40.244Z,7.70
2017-08-06T22:44:06.302Z,7.00
2017-08-06T22:46:32.349Z,6.23
2017-08-06T22:48:58.394Z,4.70
2017-08-06T22:51:24.430Z,3.73
2017-08-06T22:53:50.551Z,3.60
2017-08-06T22:56:16.615Z,9.33
2017-08-06T22:58:42.688Z,4.67
2017-08-06T23:01:08.733Z,6.13
2017-08-06T23:03:34.789Z,4.07
2017-08-06T23:06:00.817Z,4.13
2017-08-06T23:08:26.878Z,12.20
2017-08-06T23:10:52.965Z,5.30
2017-08-06T23:13:19.833Z,4.10
2017-08-06T23:15:45.897Z,4.40
2017-08-06T23:18:11.938Z,5.70
2017-08-06T23:20:37.991Z,11.43
2017-08-06T23:23:04.047Z,5.33
2017-08-06T23:25:30.130Z,4.80
2017-08-06T23:27:56.155Z,9.40
2017-08-06T23:30:22.940Z,6.10
2017-08-06T23:32:48.993Z,4.13
2017-08-06T23:35:15.813Z,4.43
2017-08-06T23:40:15.482Z,6.60
2017-08-06T23:42:41.529Z,4.10
2017-08-06T23:45:07.573Z,4.33
2017-08-06T23:47:33.600Z,5.00
2017-08-06T23:49:59.670Z,6.60
2017-08-06T23:52:26.446Z,4.23
2017-08-06T23:54:52.515Z,4.33
2017-08-06T23:57:18.579Z,5.03
2017-08-06T23:59:44.619Z,4.43
